Airfield :
LOGIN :

Register | Disclaimer

   EN    FR    IT 

 










Legend :    VFR   Marginal VFR   IFR   Intensive IFR   Very Intensive IFR
Visi :
Ceiling :
>= 8 km
>= 3000ft
5 to 8 km
1000 to 3000 ft
1500m to 5 km
500 to 1000 ft
800 to 1500m
200 to 500 ft
< 800m
< 200 ft
Symbols :   Thunderstorms  Fog  Heavy snow  Heavy precipitations  Wind > 20 kt
SIGMETs :     Misc.  Thunderstorms  Icing  Turbulence  Mountain Waves  Volcanic Ashes







- Airport Elevation : 184 ft
- IATA code : BRU


EBBR - Bruxelles

CURRENT METAR :
  • 221820Z 33010KT 300V360 9999 FEW026 BKN043 13/08 Q1029 NOSIG

EXPIRED METARs :
  • 221750Z 34010KT 9999 FEW027 BKN049 14/07 Q1029 NOSIG
  • 221720Z 34010KT 310V010 9999 FEW028 BKN048 14/08 Q1029 NOSIG
  • 221650Z 33011KT 300V360 9999 FEW030 BKN042 14/07 Q1029 NOSIG
  • 221620Z 34010KT 9999 FEW032 BKN042 15/08 Q1029 NOSIG
  • 221550Z 33012KT 290V010 9999 SCT032 BKN044 15/07 Q1029 NOSIG

TAF TAF EBBR
Valid from the 22 at 18:00 until the 24 at 00:00 UTC


221710Z 2218/2324 33009KT 9999 SCT030 BKN045
No reported NOTAMs for that airfield.



MET'MAP, your aeronautical weather chart ! - Copyright ORBIFLY December 2007 - Disclaimer

ORBIFLY MET'MAP TEAM :

Programming & Development : Alexandra Zaïnal
Concept & Development : Baudouin d'Aumeries
Co-Development & Prog : Marc-Olivier Méhu
Technical & hardware support : Manuel Goepfert

Contact : metmap@orbifly.com




SOURCES & CREDITS :

   NOAA